Coral Topaz — 3ELB7 — position and weather

sailwx.info

Track history (hours):
 
Tides and Currents Weather Stations Pressure Air Temp Water Temp Dewpoint Dewpoint Depression Visibility Wind Speed Wind Dir Waves Ship Positions

Coral Topaz

Last reported at 2016-Jan-27 03:13 UTC. Time now 2016-Feb-07 21:48 UTC.
Position S 32°26' E 152°39'.
Warning: this ship's position is 11 days out of date.

Length 225 m; draft 12.6 m.

Type: Ship. MMSI: 372904000.

Date/timePositionNaut miles runAvg speedWind from/ knotsBaromVisibWave heightAir tempDewpointWater temp
2016-Jan-27 03:13S 32°26' E 152°39'1013.0
2016-Jan-27 02:28S 32°35' E 152°33'1213.0
2016-Jan-27 01:33S 32°43' E 152°23'1312.9
2016-Jan-27 00:33S 32°52' E 152°11'1312.9
2016-Jan-26 23:33S 32°56' E 151°57'7 6.9
2016-Jan-26 22:33S 32°55' E 151°49'2 1.8
2016-Jan-26 21:28S 32°54' E 151°46'0 0.0
2016-Jan-26 20:28S 32°54' E 151°46'0 0.0
2016-Jan-26 19:31S 32°54' E 151°46'0 0.0
2016-Jan-26 18:31S 32°54' E 151°46'0 0.0
2016-Jan-26 17:31S 32°54' E 151°46'0 0.0
2016-Jan-26 16:28S 32°54' E 151°46'0 0.0
2016-Jan-26 15:31S 32°54' E 151°46'0 0.0
2016-Jan-26 14:31S 32°54' E 151°46'0 0.0
2016-Jan-26 13:31S 32°54' E 151°46'0 0.0
2016-Jan-26 12:31S 32°54' E 151°46'0 0.0
2016-Jan-26 11:34S 32°54' E 151°46'0 0.0
2016-Jan-26 10:34S 32°54' E 151°46'0 0.0
2016-Jan-26 09:34S 32°54' E 151°46'0 0.0
2016-Jan-26 08:33S 32°54' E 151°46'0 0.0
2016-Jan-26 07:33S 32°54' E 151°46'0 0.0
2016-Jan-26 06:33S 32°54' E 151°46'0 0.0
2016-Jan-26 05:33S 32°54' E 151°46'0 0.0
2016-Jan-26 04:34S 32°54' E 151°46'0 0.0
2016-Jan-26 03:33S 32°54' E 151°46'0 0.0
2016-Jan-26 02:33S 32°54' E 151°46'0 0.0
2016-Jan-26 01:34S 32°54' E 151°46'0 0.0
2016-Jan-26 00:34S 32°54' E 151°46'0 0.0
2016-Jan-25 23:33S 32°54' E 151°46'0 0.0
2016-Jan-25 22:34S 32°54' E 151°46'0 0.0
2016-Jan-25 21:33S 32°54' E 151°46'0 0.0
2016-Jan-25 20:34S 32°54' E 151°46'0 0.0
2016-Jan-25 19:34S 32°54' E 151°46'0 0.0
2016-Jan-25 18:33S 32°54' E 151°46'0 0.0
2016-Jan-25 17:34S 32°54' E 151°46'0 0.0
2016-Jan-25 16:34S 32°54' E 151°46'0 0.0
2016-Jan-25 15:34S 32°54' E 151°46'0 0.0
2016-Jan-25 14:34S 32°54' E 151°46'0 0.0
2016-Jan-25 13:34S 32°54' E 151°46'0 0.0
2016-Jan-25 12:33S 32°54' E 151°46'0 0.0
2016-Jan-25 11:33S 32°54' E 151°46'0 0.0
2016-Jan-25 10:33S 32°54' E 151°46'0 0.0
2016-Jan-25 09:34S 32°54' E 151°46'1 1.3
2016-Jan-25 08:34S 32°55' E 151°47'6 6.5
2016-Jan-25 07:34S 32°60' E 151°53'6 5.8
2016-Jan-25 06:33S 33°06' E 151°52'1 0.8
2016-Jan-25 05:33S 33°05' E 151°53'4 3.8
2016-Jan-25 04:33S 33°05' E 151°48'  
2016-Jan-22 22:33S 33°06' E 151°47'9 8.7
2016-Jan-22 21:33S 33°12' E 151°54'1110.7
2016-Jan-22 20:33S 33°21' E 152°02'4 0.5
2016-Jan-22 12:29S 33°16' E 152°03'1110.4
2016-Jan-22 11:23S 33°10' E 151°52'1 0.7
2016-Jan-22 10:17S 33°09' E 151°52'2 0.8
2016-Jan-22 08:17S 33°08' E 151°54'1 0.7
2016-Jan-22 07:29S 33°08' E 151°55'1 0.9
2016-Jan-22 06:32S 33°08' E 151°56'1 0.8
2016-Jan-22 05:32S 33°09' E 151°57'1 0.8
2016-Jan-22 04:32S 33°09' E 151°58'1 0.8
2016-Jan-22 03:32S 33°09' E 151°59'1 0.9
2016-Jan-22 02:32S 33°09' E 151°60'1 1.0
2016-Jan-22 01:32S 33°08' E 152°01'1 1.2
2016-Jan-22 00:29S 33°08' E 152°02'1 1.3
2016-Jan-21 23:32S 33°08' E 152°04'2 1.6
2016-Jan-21 22:32S 33°07' E 152°06'2 1.5
2016-Jan-21 21:32S 33°07' E 152°07'2 1.5
2016-Jan-21 20:32S 33°06' E 152°09'1 1.4
2016-Jan-21 19:32S 33°06' E 152°11'1 1.2
2016-Jan-21 18:32S 33°05' E 152°12'1 1.1
2016-Jan-21 17:32S 33°05' E 152°13'1 1.2
2016-Jan-21 16:32S 33°04' E 152°14'1 1.0
2016-Jan-21 15:32S 33°03' E 152°14'1 1.3
2016-Jan-21 14:32S 33°02' E 152°15'1 0.7
2016-Jan-21 13:32S 33°01' E 152°15'2 1.7
2016-Jan-21 12:34S 32°59' E 152°15'8 7.8
2016-Jan-21 11:34S 32°56' E 152°06'3 2.8
2016-Jan-21 10:31S 32°58' E 152°03'2 1.5
2016-Jan-21 09:31S 32°59' E 152°05'2 1.5
2016-Jan-21 08:31S 32°59' E 152°07'2 2.1
2016-Jan-21 07:31S 32°59' E 152°09'2 2.2
2016-Jan-21 06:31S 32°59' E 152°12'2 2.0
2016-Jan-21 05:31S 32°58' E 152°14'2 1.9
2016-Jan-21 04:31S 32°58' E 152°17'2 1.8
2016-Jan-21 03:31S 32°58' E 152°19'2 1.9
2016-Jan-21 02:31S 32°57' E 152°21'5 4.8
2016-Jan-21 01:33S 32°58' E 152°26'1211.6
2016-Jan-21 00:34S 33°04' E 152°38'1312.6
2016-Jan-20 23:34S 33°09' E 152°52'1313.3
2016-Jan-20 22:34S 33°12' E 153°07'1413.5
2016-Jan-20 21:33S 33°12' E 153°23'6 4.7
2016-Jan-20 20:22S 33°08' E 153°29'4 4.6
2016-Jan-20 19:34S 33°05' E 153°28'5 4.8
2016-Jan-20 18:28S 32°60' E 153°27'5 5.0
2016-Jan-20 17:34S 32°55' E 153°27'5 5.1
2016-Jan-20 16:33S 32°50' E 153°26'5 5.4
2016-Jan-20 15:33S 32°45' E 153°26'5 5.5
2016-Jan-20 14:34S 32°39' E 153°25'6 5.7
2016-Jan-20 13:34S 32°34' E 153°23'6 5.7
2016-Jan-20 12:34S 32°28' E 153°22'6 5.7
2016-Jan-20 11:33S 32°23' E 153°21'7 5.5
2016-Jan-20 10:18S 32°16' E 153°19'4 5.4
2016-Jan-20 09:33S 32°12' E 153°19'5 5.2
2016-Jan-20 08:34S 32°07' E 153°18'5 4.9
2016-Jan-20 07:34S 32°02' E 153°18'5 4.8
2016-Jan-20 06:33S 31°57' E 153°19'5 4.6
2016-Jan-20 05:34S 31°52' E 153°19'4 4.1
2016-Jan-20 04:33S 31°48' E 153°19'4 4.1
2016-Jan-20 03:34S 31°44' E 153°18'4 3.9
2016-Jan-20 02:30S 31°41' E 153°16'9 9.4
2016-Jan-20 01:33S 31°37' E 153°06'1 0.9
2016-Jan-20 00:29S 31°36' E 153°06'1 1.6
2016-Jan-19 23:32S 31°35' E 153°07'1 1.5
2016-Jan-19 22:32S 31°34' E 153°08'3 1.5
2016-Jan-19 20:20S 31°32' E 153°11'1 1.7
2016-Jan-19 19:29S 31°31' E 153°12'2 1.7
2016-Jan-19 18:29S 31°30' E 153°14'2 1.7
2016-Jan-19 17:29S 31°28' E 153°15'  
Track history (hours):
 
Tides and Currents Weather Stations Pressure Air Temp Water Temp Dewpoint Dewpoint Depression Visibility Wind Speed Wind Dir Waves Ship Positions

Coral Topaz

Last reported at 2016-Jan-27 03:13 UTC. Time now 2016-Feb-07 21:48 UTC.
Position S 32°26' E 152°39'.
Warning: this ship's position is 11 days out of date.

Length 225 m; draft 12.6 m.

Type: Ship. MMSI: 372904000.

Date/timePositionNaut miles runAvg speedWind from/ knotsBaromVisibWave heightAir tempDewpointWater temp
2016-Jan-27 03:13S 32°26' E 152°39'1013.0
2016-Jan-27 02:28S 32°35' E 152°33'1213.0
2016-Jan-27 01:33S 32°43' E 152°23'1312.9
2016-Jan-27 00:33S 32°52' E 152°11'1312.9
2016-Jan-26 23:33S 32°56' E 151°57'7 6.9
2016-Jan-26 22:33S 32°55' E 151°49'2 1.8
2016-Jan-26 21:28S 32°54' E 151°46'0 0.0
2016-Jan-26 20:28S 32°54' E 151°46'0 0.0
2016-Jan-26 19:31S 32°54' E 151°46'0 0.0
2016-Jan-26 18:31S 32°54' E 151°46'0 0.0
2016-Jan-26 17:31S 32°54' E 151°46'0 0.0
2016-Jan-26 16:28S 32°54' E 151°46'0 0.0
2016-Jan-26 15:31S 32°54' E 151°46'0 0.0
2016-Jan-26 14:31S 32°54' E 151°46'0 0.0
2016-Jan-26 13:31S 32°54' E 151°46'0 0.0
2016-Jan-26 12:31S 32°54' E 151°46'0 0.0
2016-Jan-26 11:34S 32°54' E 151°46'0 0.0
2016-Jan-26 10:34S 32°54' E 151°46'0 0.0
2016-Jan-26 09:34S 32°54' E 151°46'0 0.0
2016-Jan-26 08:33S 32°54' E 151°46'0 0.0
2016-Jan-26 07:33S 32°54' E 151°46'0 0.0
2016-Jan-26 06:33S 32°54' E 151°46'0 0.0
2016-Jan-26 05:33S 32°54' E 151°46'0 0.0
2016-Jan-26 04:34S 32°54' E 151°46'0 0.0
2016-Jan-26 03:33S 32°54' E 151°46'0 0.0
2016-Jan-26 02:33S 32°54' E 151°46'0 0.0
2016-Jan-26 01:34S 32°54' E 151°46'0 0.0
2016-Jan-26 00:34S 32°54' E 151°46'0 0.0
2016-Jan-25 23:33S 32°54' E 151°46'0 0.0
2016-Jan-25 22:34S 32°54' E 151°46'0 0.0
2016-Jan-25 21:33S 32°54' E 151°46'0 0.0
2016-Jan-25 20:34S 32°54' E 151°46'0 0.0
2016-Jan-25 19:34S 32°54' E 151°46'0 0.0
2016-Jan-25 18:33S 32°54' E 151°46'0 0.0
2016-Jan-25 17:34S 32°54' E 151°46'0 0.0
2016-Jan-25 16:34S 32°54' E 151°46'0 0.0
2016-Jan-25 15:34S 32°54' E 151°46'0 0.0
2016-Jan-25 14:34S 32°54' E 151°46'0 0.0
2016-Jan-25 13:34S 32°54' E 151°46'0 0.0
2016-Jan-25 12:33S 32°54' E 151°46'0 0.0
2016-Jan-25 11:33S 32°54' E 151°46'0 0.0
2016-Jan-25 10:33S 32°54' E 151°46'0 0.0
2016-Jan-25 09:34S 32°54' E 151°46'1 1.3
2016-Jan-25 08:34S 32°55' E 151°47'6 6.5
2016-Jan-25 07:34S 32°60' E 151°53'6 5.8
2016-Jan-25 06:33S 33°06' E 151°52'1 0.8
2016-Jan-25 05:33S 33°05' E 151°53'4 3.8
2016-Jan-25 04:33S 33°05' E 151°48'  
2016-Jan-22 22:33S 33°06' E 151°47'9 8.7
2016-Jan-22 21:33S 33°12' E 151°54'1110.7
2016-Jan-22 20:33S 33°21' E 152°02'4 0.5
2016-Jan-22 12:29S 33°16' E 152°03'1110.4
2016-Jan-22 11:23S 33°10' E 151°52'1 0.7
2016-Jan-22 10:17S 33°09' E 151°52'2 0.8
2016-Jan-22 08:17S 33°08' E 151°54'1 0.7
2016-Jan-22 07:29S 33°08' E 151°55'1 0.9
2016-Jan-22 06:32S 33°08' E 151°56'1 0.8
2016-Jan-22 05:32S 33°09' E 151°57'1 0.8
2016-Jan-22 04:32S 33°09' E 151°58'1 0.8
2016-Jan-22 03:32S 33°09' E 151°59'1 0.9
2016-Jan-22 02:32S 33°09' E 151°60'1 1.0
2016-Jan-22 01:32S 33°08' E 152°01'1 1.2
2016-Jan-22 00:29S 33°08' E 152°02'1 1.3
2016-Jan-21 23:32S 33°08' E 152°04'2 1.6
2016-Jan-21 22:32S 33°07' E 152°06'2 1.5
2016-Jan-21 21:32S 33°07' E 152°07'2 1.5
2016-Jan-21 20:32S 33°06' E 152°09'1 1.4
2016-Jan-21 19:32S 33°06' E 152°11'1 1.2
2016-Jan-21 18:32S 33°05' E 152°12'1 1.1
2016-Jan-21 17:32S 33°05' E 152°13'1 1.2
2016-Jan-21 16:32S 33°04' E 152°14'1 1.0
2016-Jan-21 15:32S 33°03' E 152°14'1 1.3
2016-Jan-21 14:32S 33°02' E 152°15'1 0.7
2016-Jan-21 13:32S 33°01' E 152°15'2 1.7
2016-Jan-21 12:34S 32°59' E 152°15'8 7.8
2016-Jan-21 11:34S 32°56' E 152°06'3 2.8
2016-Jan-21 10:31S 32°58' E 152°03'2 1.5
2016-Jan-21 09:31S 32°59' E 152°05'2 1.5
2016-Jan-21 08:31S 32°59' E 152°07'2 2.1
2016-Jan-21 07:31S 32°59' E 152°09'2 2.2
2016-Jan-21 06:31S 32°59' E 152°12'2 2.0
2016-Jan-21 05:31S 32°58' E 152°14'2 1.9
2016-Jan-21 04:31S 32°58' E 152°17'2 1.8
2016-Jan-21 03:31S 32°58' E 152°19'2 1.9
2016-Jan-21 02:31S 32°57' E 152°21'5 4.8
2016-Jan-21 01:33S 32°58' E 152°26'1211.6
2016-Jan-21 00:34S 33°04' E 152°38'1312.6
2016-Jan-20 23:34S 33°09' E 152°52'1313.3
2016-Jan-20 22:34S 33°12' E 153°07'1413.5
2016-Jan-20 21:33S 33°12' E 153°23'6 4.7
2016-Jan-20 20:22S 33°08' E 153°29'4 4.6
2016-Jan-20 19:34S 33°05' E 153°28'5 4.8
2016-Jan-20 18:28S 32°60' E 153°27'5 5.0
2016-Jan-20 17:34S 32°55' E 153°27'5 5.1
2016-Jan-20 16:33S 32°50' E 153°26'5 5.4
2016-Jan-20 15:33S 32°45' E 153°26'5 5.5
2016-Jan-20 14:34S 32°39' E 153°25'6 5.7
2016-Jan-20 13:34S 32°34' E 153°23'6 5.7
2016-Jan-20 12:34S 32°28' E 153°22'6 5.7
2016-Jan-20 11:33S 32°23' E 153°21'7 5.5
2016-Jan-20 10:18S 32°16' E 153°19'4 5.4
2016-Jan-20 09:33S 32°12' E 153°19'5 5.2
2016-Jan-20 08:34S 32°07' E 153°18'5 4.9
2016-Jan-20 07:34S 32°02' E 153°18'5 4.8
2016-Jan-20 06:33S 31°57' E 153°19'5 4.6
2016-Jan-20 05:34S 31°52' E 153°19'4 4.1
2016-Jan-20 04:33S 31°48' E 153°19'4 4.1
2016-Jan-20 03:34S 31°44' E 153°18'4 3.9
2016-Jan-20 02:30S 31°41' E 153°16'9 9.4
2016-Jan-20 01:33S 31°37' E 153°06'1 0.9
2016-Jan-20 00:29S 31°36' E 153°06'1 1.6
2016-Jan-19 23:32S 31°35' E 153°07'1 1.5
2016-Jan-19 22:32S 31°34' E 153°08'3 1.5
2016-Jan-19 20:20S 31°32' E 153°11'1 1.7
2016-Jan-19 19:29S 31°31' E 153°12'2 1.7
2016-Jan-19 18:29S 31°30' E 153°14'2 1.7
2016-Jan-19 17:29S 31°28' E 153°15'  

Dump ship's entire track history